Shelby County Airport Alabaster US
ICAO: KEET
IATA: EET
Category: Medium
Scheduled Services: No

Elevation: 586 ft
TransAlt. 18000 ft.

Airport Communications:
BIRMINGHAM APP/DEP:123.8
ASOS:134.325
CTAF/UNICOM:122.7

KEET Zoom In..

If you have problems with the map follow the link
https://www.worldairports.se/pages/airport.php?
ICAO=KEET

Runways:

(A) RW 16 length 5000 ft width 75 ft
---- / hdg 160

(B) RW 34 length 5000 ft width 75 ft
---- / hdg 340

Location; KEET
Day. 22 / Time. 12.53 Zulu
* Altimeter: 30.29
* Temperature: 07° c. 44.6°f.
* Wind from: 000° Speed 00 kn.
Dewpoint: 03° c.
Visibility: 10 Statute Miles.
Clouds: Clear (automated report).

KEET 221253Z AUTO 00000KT 10SM CLR 07/03 A3029 RMK AO2 SLP258 T00670028


Wind - Calm.

 
 
jpsmedia.com for Web Design worldairports.se 2018   terms of use